sensor_id;sensor_type;location;lat;lon;timestamp;pressure;altitude;pressure_sealevel;temperature;humidity
64200;BME280;50516;52.272;5.136;2024-02-04T00:00:42;102312.78;;;10.14;100.00
64200;BME280;50516;52.272;5.136;2024-02-04T00:03:07;102304.88;;;10.05;100.00
64200;BME280;50516;52.272;5.136;2024-02-04T00:05:33;102304.16;;;9.98;100.00
64200;BME280;50516;52.272;5.136;2024-02-04T00:07:58;102306.66;;;10.00;100.00
64200;BME280;50516;52.272;5.136;2024-02-04T00:10:23;102306.53;;;9.95;100.00
64200;BME280;50516;52.272;5.136;2024-02-04T00:12:48;102306.56;;;10.07;100.00
64200;BME280;50516;52.272;5.136;2024-02-04T00:15:14;102314.75;;;9.95;100.00
64200;BME280;50516;52.272;5.136;2024-02-04T00:17:39;102314.81;;;9.88;100.00
64200;BME280;50516;52.272;5.136;2024-02-04T00:20:05;102312.41;;;9.80;100.00
64200;BME280;50516;52.272;5.136;2024-02-04T00:22:31;102306.88;;;9.68;100.00
64200;BME280;50516;52.272;5.136;2024-02-04T00:24:58;102311.06;;;9.71;100.00
64200;BME280;50516;52.272;5.136;2024-02-04T00:27:29;102307.59;;;9.75;100.00
64200;BME280;50516;52.272;5.136;2024-02-04T00:29:54;102300.31;;;9.69;100.00
64200;BME280;50516;52.272;5.136;2024-02-04T00:32:20;102305.25;;;9.79;100.00
64200;BME280;50516;52.272;5.136;2024-02-04T00:34:45;102306.78;;;9.75;100.00
64200;BME280;50516;52.272;5.136;2024-02-04T00:37:10;102307.78;;;9.80;100.00
64200;BME280;50516;52.272;5.136;2024-02-04T00:39:35;102302.75;;;9.77;100.00
64200;BME280;50516;52.272;5.136;2024-02-04T00:42:01;102314.81;;;9.88;100.00
64200;BME280;50516;52.272;5.136;2024-02-04T00:44:26;102306.38;;;9.90;100.00
64200;BME280;50516;52.272;5.136;2024-02-04T00:46:51;102299.00;;;9.90;100.00
64200;BME280;50516;52.272;5.136;2024-02-04T00:49:17;102310.09;;;9.95;100.00
64200;BME280;50516;52.272;5.136;2024-02-04T00:51:42;102298.66;;;9.98;100.00
64200;BME280;50516;52.272;5.136;2024-02-04T00:54:07;102299.59;;;9.92;100.00
64200;BME280;50516;52.272;5.136;2024-02-04T00:56:33;102295.63;;;9.88;100.00
64200;BME280;50516;52.272;5.136;2024-02-04T00:58:58;102297.81;;;9.98;100.00
64200;BME280;50516;52.272;5.136;2024-02-04T01:01:23;102291.22;;;9.87;100.00
64200;BME280;50516;52.272;5.136;2024-02-04T01:03:49;102285.97;;;9.85;100.00
64200;BME280;50516;52.272;5.136;2024-02-04T01:06:14;102285.88;;;9.74;100.00
64200;BME280;50516;52.272;5.136;2024-02-04T01:08:39;102281.81;;;9.64;100.00
64200;BME280;50516;52.272;5.136;2024-02-04T01:11:05;102293.31;;;9.55;100.00
64200;BME280;50516;52.272;5.136;2024-02-04T01:13:31;102296.31;;;9.53;100.00
64200;BME280;50516;52.272;5.136;2024-02-04T01:15:56;102294.00;;;9.50;100.00
64200;BME280;50516;52.272;5.136;2024-02-04T01:18:21;102292.19;;;9.44;100.00
64200;BME280;50516;52.272;5.136;2024-02-04T01:20:46;102292.94;;;9.51;100.00
64200;BME280;50516;52.272;5.136;2024-02-04T01:23:12;102291.50;;;9.48;100.00
64200;BME280;50516;52.272;5.136;2024-02-04T01:25:38;102298.72;;;9.43;100.00
64200;BME280;50516;52.272;5.136;2024-02-04T01:28:04;102304.19;;;9.43;100.00
64200;BME280;50516;52.272;5.136;2024-02-04T01:30:29;102306.44;;;9.34;100.00
64200;BME280;50516;52.272;5.136;2024-02-04T01:32:56;102302.22;;;9.31;100.00
64200;BME280;50516;52.272;5.136;2024-02-04T01:35:21;102305.66;;;9.45;100.00
64200;BME280;50516;52.272;5.136;2024-02-04T01:37:47;102310.78;;;9.42;100.00
64200;BME280;50516;52.272;5.136;2024-02-04T01:40:14;102299.19;;;9.40;100.00
64200;BME280;50516;52.272;5.136;2024-02-04T01:42:39;102286.25;;;9.47;100.00
64200;BME280;50516;52.272;5.136;2024-02-04T01:45:05;102294.25;;;9.48;100.00
64200;BME280;50516;52.272;5.136;2024-02-04T01:47:30;102295.06;;;9.49;100.00
64200;BME280;50516;52.272;5.136;2024-02-04T01:49:56;102296.06;;;9.55;100.00
64200;BME280;50516;52.272;5.136;2024-02-04T01:52:21;102300.72;;;9.36;100.00
64200;BME280;50516;52.272;5.136;2024-02-04T01:54:47;102310.44;;;9.31;100.00
64200;BME280;50516;52.272;5.136;2024-02-04T01:57:13;102300.25;;;9.39;100.00
64200;BME280;50516;52.272;5.136;2024-02-04T01:59:39;102295.69;;;9.32;100.00
64200;BME280;50516;52.272;5.136;2024-02-04T02:02:05;102312.97;;;9.33;100.00
64200;BME280;50516;52.272;5.136;2024-02-04T02:04:31;102306.34;;;9.22;100.00
64200;BME280;50516;52.272;5.136;2024-02-04T02:06:56;102315.19;;;9.24;100.00
64200;BME280;50516;52.272;5.136;2024-02-04T02:09:24;102308.16;;;9.28;100.00
64200;BME280;50516;52.272;5.136;2024-02-04T02:12:06;102308.25;;;9.40;100.00
64200;BME280;50516;52.272;5.136;2024-02-04T02:14:35;102305.59;;;9.34;100.00
64200;BME280;50516;52.272;5.136;2024-02-04T02:17:06;102294.31;;;9.42;100.00
64200;BME280;50516;52.272;5.136;2024-02-04T02:19:54;102289.06;;;9.22;100.00
64200;BME280;50516;52.272;5.136;2024-02-04T02:22:39;102284.56;;;9.27;100.00
64200;BME280;50516;52.272;5.136;2024-02-04T02:25:10;102290.66;;;9.29;100.00
64200;BME280;50516;52.272;5.136;2024-02-04T02:27:49;102288.97;;;9.28;100.00
64200;BME280;50516;52.272;5.136;2024-02-04T02:30:14;102285.56;;;9.33;100.00
64200;BME280;50516;52.272;5.136;2024-02-04T02:32:41;102276.72;;;9.31;100.00
64200;BME280;50516;52.272;5.136;2024-02-04T02:35:07;102276.34;;;9.27;100.00
64200;BME280;50516;52.272;5.136;2024-02-04T02:40:21;102292.13;;;9.32;100.00
64200;BME280;50516;52.272;5.136;2024-02-04T02:42:48;102287.41;;;9.21;100.00
64200;BME280;50516;52.272;5.136;2024-02-04T02:45:15;102278.00;;;9.28;100.00
64200;BME280;50516;52.272;5.136;2024-02-04T02:47:42;102276.34;;;9.27;100.00
64200;BME280;50516;52.272;5.136;2024-02-04T02:50:09;102280.47;;;9.18;100.00
64200;BME280;50516;52.272;5.136;2024-02-04T02:52:34;102279.56;;;9.24;100.00
64200;BME280;50516;52.272;5.136;2024-02-04T02:55:00;102287.69;;;9.31;100.00
64200;BME280;50516;52.272;5.136;2024-02-04T02:57:25;102287.25;;;9.34;100.00
64200;BME280;50516;52.272;5.136;2024-02-04T02:59:50;102292.25;;;9.37;100.00
64200;BME280;50516;52.272;5.136;2024-02-04T03:02:16;102294.00;;;9.50;100.00
64200;BME280;50516;52.272;5.136;2024-02-04T03:04:41;102283.19;;;9.55;100.00
64200;BME280;50516;52.272;5.136;2024-02-04T03:07:06;102287.44;;;9.51;100.00
64200;BME280;50516;52.272;5.136;2024-02-04T03:09:33;102283.78;;;9.57;100.00
64200;BME280;50516;52.272;5.136;2024-02-04T03:11:58;102279.13;;;9.76;100.00
64200;BME280;50516;52.272;5.136;2024-02-04T03:14:23;102289.59;;;9.67;100.00
64200;BME280;50516;52.272;5.136;2024-02-04T03:16:48;102292.31;;;9.49;100.00
64200;BME280;50516;52.272;5.136;2024-02-04T03:19:14;102276.41;;;9.58;100.00
64200;BME280;50516;52.272;5.136;2024-02-04T03:21:39;102276.34;;;9.46;100.00
64200;BME280;50516;52.272;5.136;2024-02-04T03:24:05;102271.63;;;9.35;100.00
64200;BME280;50516;52.272;5.136;2024-02-04T03:26:30;102261.72;;;9.52;100.00
64200;BME280;50516;52.272;5.136;2024-02-04T03:28:55;102269.03;;;9.58;100.00
64200;BME280;50516;52.272;5.136;2024-02-04T03:31:22;102272.69;;;9.52;100.00
64200;BME280;50516;52.272;5.136;2024-02-04T03:33:48;102262.16;;;9.49;100.00
64200;BME280;50516;52.272;5.136;2024-02-04T03:36:18;102284.09;;;9.49;100.00
64200;BME280;50516;52.272;5.136;2024-02-04T03:38:43;102291.66;;;9.35;100.00
64200;BME280;50516;52.272;5.136;2024-02-04T03:41:08;102286.22;;;9.28;100.00
64200;BME280;50516;52.272;5.136;2024-02-04T03:43:36;102293.63;;;9.28;100.00
64200;BME280;50516;52.272;5.136;2024-02-04T03:46:01;102292.94;;;9.14;100.00
64200;BME280;50516;52.272;5.136;2024-02-04T03:48:26;102290.22;;;9.14;100.00
64200;BME280;50516;52.272;5.136;2024-02-04T03:50:51;102287.75;;;9.06;100.00
64200;BME280;50516;52.272;5.136;2024-02-04T03:53:17;102294.22;;;9.11;100.00
64200;BME280;50516;52.272;5.136;2024-02-04T03:55:44;102299.19;;;9.21;100.00
64200;BME280;50516;52.272;5.136;2024-02-04T03:58:09;102291.13;;;9.26;100.00
64200;BME280;50516;52.272;5.136;2024-02-04T04:00:34;102295.53;;;9.27;100.00
64200;BME280;50516;52.272;5.136;2024-02-04T04:02:59;102283.19;;;9.18;100.00
64200;BME280;50516;52.272;5.136;2024-02-04T04:05:25;102298.34;;;9.21;100.00
64200;BME280;50516;52.272;5.136;2024-02-04T04:07:51;102289.97;;;9.34;100.00
64200;BME280;50516;52.272;5.136;2024-02-04T04:10:17;102275.38;;;9.40;100.00
64200;BME280;50516;52.272;5.136;2024-02-04T04:12:42;102264.94;;;9.30;100.00
64200;BME280;50516;52.272;5.136;2024-02-04T04:15:07;102259.53;;;9.24;100.00
64200;BME280;50516;52.272;5.136;2024-02-04T04:17:33;102270.72;;;9.22;100.00
64200;BME280;50516;52.272;5.136;2024-02-04T04:19:58;102270.56;;;9.17;100.00
64200;BME280;50516;52.272;5.136;2024-02-04T04:22:23;102262.13;;;9.37;100.00
64200;BME280;50516;52.272;5.136;2024-02-04T04:24:48;102264.63;;;9.39;100.00
64200;BME280;50516;52.272;5.136;2024-02-04T04:27:14;102267.34;;;9.57;100.00
64200;BME280;50516;52.272;5.136;2024-02-04T04:29:39;102252.09;;;9.61;100.00
64200;BME280;50516;52.272;5.136;2024-02-04T04:32:05;102247.81;;;9.65;100.00
64200;BME280;50516;52.272;5.136;2024-02-04T04:34:30;102256.75;;;9.61;100.00
64200;BME280;50516;52.272;5.136;2024-02-04T04:36:55;102255.34;;;9.70;100.00
64200;BME280;50516;52.272;5.136;2024-02-04T04:39:21;102251.78;;;9.69;100.00
64200;BME280;50516;52.272;5.136;2024-02-04T04:41:46;102246.31;;;9.69;100.00
64200;BME280;50516;52.272;5.136;2024-02-04T04:44:11;102241.75;;;9.63;100.00
64200;BME280;50516;52.272;5.136;2024-02-04T04:46:40;102246.41;;;9.63;100.00
64200;BME280;50516;52.272;5.136;2024-02-04T04:49:05;102240.44;;;9.66;100.00
64200;BME280;50516;52.272;5.136;2024-02-04T04:51:31;102250.41;;;9.60;100.00
64200;BME280;50516;52.272;5.136;2024-02-04T04:53:57;102231.81;;;9.62;100.00
64200;BME280;50516;52.272;5.136;2024-02-04T04:56:22;102226.63;;;9.73;100.00
64200;BME280;50516;52.272;5.136;2024-02-04T04:58:47;102229.66;;;9.83;100.00
64200;BME280;50516;52.272;5.136;2024-02-04T05:01:15;102222.75;;;9.80;100.00
64200;BME280;50516;52.272;5.136;2024-02-04T05:03:40;102224.63;;;9.80;100.00
64200;BME280;50516;52.272;5.136;2024-02-04T05:06:05;102218.63;;;9.71;100.00
64200;BME280;50516;52.272;5.136;2024-02-04T05:08:30;102216.50;;;9.73;100.00
64200;BME280;50516;52.272;5.136;2024-02-04T05:10:56;102220.81;;;9.81;100.00
64200;BME280;50516;52.272;5.136;2024-02-04T05:13:21;102224.16;;;9.83;100.00
64200;BME280;50516;52.272;5.136;2024-02-04T05:15:46;102226.03;;;9.71;100.00
64200;BME280;50516;52.272;5.136;2024-02-04T05:18:12;102235.00;;;9.78;100.00
64200;BME280;50516;52.272;5.136;2024-02-04T05:20:37;102232.53;;;9.88;100.00
64200;BME280;50516;52.272;5.136;2024-02-04T05:23:02;102223.59;;;9.93;100.00
64200;BME280;50516;52.272;5.136;2024-02-04T05:25:27;102218.81;;;9.88;100.00
64200;BME280;50516;52.272;5.136;2024-02-04T05:27:53;102212.13;;;9.84;100.00
64200;BME280;50516;52.272;5.136;2024-02-04T05:30:18;102202.78;;;9.73;100.00
64200;BME280;50516;52.272;5.136;2024-02-04T05:32:43;102203.59;;;9.74;100.00
64200;BME280;50516;52.272;5.136;2024-02-04T05:35:10;102193.03;;;9.77;100.00
64200;BME280;50516;52.272;5.136;2024-02-04T05:37:35;102194.88;;;9.65;100.00
64200;BME280;50516;52.272;5.136;2024-02-04T05:40:01;102201.19;;;9.65;100.00
64200;BME280;50516;52.272;5.136;2024-02-04T05:42:27;102221.63;;;9.69;100.00
64200;BME280;50516;52.272;5.136;2024-02-04T05:44:52;102218.88;;;9.69;100.00
64200;BME280;50516;52.272;5.136;2024-02-04T05:47:17;102226.97;;;9.64;100.00
64200;BME280;50516;52.272;5.136;2024-02-04T05:49:44;102216.59;;;9.66;100.00
64200;BME280;50516;52.272;5.136;2024-02-04T05:52:09;102207.81;;;9.76;100.00
64200;BME280;50516;52.272;5.136;2024-02-04T05:54:38;102200.13;;;9.66;100.00
64200;BME280;50516;52.272;5.136;2024-02-04T05:57:06;102198.00;;;9.68;100.00
64200;BME280;50516;52.272;5.136;2024-02-04T05:59:33;102197.94;;;9.57;100.00
64200;BME280;50516;52.272;5.136;2024-02-04T06:01:58;102188.22;;;9.61;100.00
64200;BME280;50516;52.272;5.136;2024-02-04T06:04:23;102179.66;;;9.69;100.00
64200;BME280;50516;52.272;5.136;2024-02-04T06:06:49;102182.22;;;9.64;100.00
64200;BME280;50516;52.272;5.136;2024-02-04T06:09:14;102189.63;;;9.63;100.00
64200;BME280;50516;52.272;5.136;2024-02-04T06:11:39;102186.09;;;9.75;100.00
64200;BME280;50516;52.272;5.136;2024-02-04T06:14:05;102177.28;;;9.73;100.00
64200;BME280;50516;52.272;5.136;2024-02-04T06:16:30;102174.88;;;9.76;100.00
64200;BME280;50516;52.272;5.136;2024-02-04T06:18:55;102174.66;;;9.90;100.00
64200;BME280;50516;52.272;5.136;2024-02-04T06:21:22;102175.13;;;9.86;100.00
64200;BME280;50516;52.272;5.136;2024-02-04T06:23:47;102164.03;;;9.69;100.00
64200;BME280;50516;52.272;5.136;2024-02-04T06:26:13;102167.81;;;9.68;100.00
64200;BME280;50516;52.272;5.136;2024-02-04T06:28:38;102172.28;;;9.51;100.00
64200;BME280;50516;52.272;5.136;2024-02-04T06:31:03;102175.47;;;9.66;100.00
64200;BME280;50516;52.272;5.136;2024-02-04T06:33:28;102165.53;;;9.65;100.00
64200;BME280;50516;52.272;5.136;2024-02-04T06:35:54;102158.06;;;9.73;100.00
64200;BME280;50516;52.272;5.136;2024-02-04T06:38:19;102166.44;;;9.78;100.00
64200;BME280;50516;52.272;5.136;2024-02-04T06:40:44;102164.97;;;9.75;100.00
64200;BME280;50516;52.272;5.136;2024-02-04T06:43:10;102162.63;;;9.79;100.00
64200;BME280;50516;52.272;5.136;2024-02-04T06:45:35;102153.94;;;9.82;100.00
64200;BME280;50516;52.272;5.136;2024-02-04T06:48:00;102169.63;;;9.75;100.00
64200;BME280;50516;52.272;5.136;2024-02-04T06:50:26;102161.75;;;9.66;100.00
64200;BME280;50516;52.272;5.136;2024-02-04T06:52:51;102157.47;;;9.71;100.00
64200;BME280;50516;52.272;5.136;2024-02-04T06:55:16;102147.94;;;9.43;100.00
64200;BME280;50516;52.272;5.136;2024-02-04T06:57:42;102151.22;;;9.52;100.00
64200;BME280;50516;52.272;5.136;2024-02-04T07:00:07;102147.31;;;9.59;100.00
64200;BME280;50516;52.272;5.136;2024-02-04T07:02:37;102142.66;;;9.72;100.00
64200;BME280;50516;52.272;5.136;2024-02-04T07:05:02;102146.81;;;9.62;100.00
64200;BME280;50516;52.272;5.136;2024-02-04T07:07:28;102134.19;;;9.61;100.00
64200;BME280;50516;52.272;5.136;2024-02-04T07:09:53;102144.59;;;9.71;100.00
64200;BME280;50516;52.272;5.136;2024-02-04T07:12:18;102137.53;;;9.63;100.00
64200;BME280;50516;52.272;5.136;2024-02-04T07:14:44;102143.25;;;9.62;100.00
64200;BME280;50516;52.272;5.136;2024-02-04T07:17:09;102126.63;;;9.45;100.00
64200;BME280;50516;52.272;5.136;2024-02-04T07:19:36;102130.22;;;9.57;100.00
64200;BME280;50516;52.272;5.136;2024-02-04T07:22:02;102134.56;;;9.77;100.00
64200;BME280;50516;52.272;5.136;2024-02-04T07:24:27;102132.88;;;9.64;100.00
64200;BME280;50516;52.272;5.136;2024-02-04T07:26:52;102136.81;;;9.56;100.00
64200;BME280;50516;52.272;5.136;2024-02-04T07:29:17;102134.88;;;9.57;100.00
64200;BME280;50516;52.272;5.136;2024-02-04T07:31:43;102159.00;;;9.66;100.00
64200;BME280;50516;52.272;5.136;2024-02-04T07:34:08;102147.44;;;9.64;100.00
64200;BME280;50516;52.272;5.136;2024-02-04T07:36:33;102154.91;;;9.57;100.00
64200;BME280;50516;52.272;5.136;2024-02-04T07:38:59;102150.06;;;9.59;100.00
64200;BME280;50516;52.272;5.136;2024-02-04T07:41:25;102152.28;;;9.62;100.00
64200;BME280;50516;52.272;5.136;2024-02-04T07:43:50;102147.91;;;9.61;100.00
64200;BME280;50516;52.272;5.136;2024-02-04T07:46:16;102153.72;;;9.53;100.00
64200;BME280;50516;52.272;5.136;2024-02-04T07:48:41;102155.53;;;9.59;100.00
64200;BME280;50516;52.272;5.136;2024-02-04T07:51:07;102140.84;;;9.65;100.00
64200;BME280;50516;52.272;5.136;2024-02-04T07:53:33;102134.19;;;9.61;100.00
64200;BME280;50516;52.272;5.136;2024-02-04T07:55:58;102133.97;;;9.75;100.00
64200;BME280;50516;52.272;5.136;2024-02-04T07:58:24;102140.41;;;9.68;100.00
64200;BME280;50516;52.272;5.136;2024-02-04T08:00:49;102137.66;;;9.68;100.00
64200;BME280;50516;52.272;5.136;2024-02-04T08:03:14;102137.53;;;9.75;100.00
64200;BME280;50516;52.272;5.136;2024-02-04T08:05:40;102136.13;;;9.73;100.00
64200;BME280;50516;52.272;5.136;2024-02-04T08:08:06;102135.91;;;9.74;100.00
64200;BME280;50516;52.272;5.136;2024-02-04T08:10:31;102127.69;;;9.86;100.00
64200;BME280;50516;52.272;5.136;2024-02-04T08:12:57;102134.00;;;9.86;100.00
64200;BME280;50516;52.272;5.136;2024-02-04T08:15:22;102138.53;;;9.93;100.00
64200;BME280;50516;52.272;5.136;2024-02-04T08:17:48;102141.78;;;10.01;100.00
64200;BME280;50516;52.272;5.136;2024-02-04T08:20:13;102139.03;;;10.01;100.00
64200;BME280;50516;52.272;5.136;2024-02-04T08:22:38;102148.81;;;9.97;100.00
64200;BME280;50516;52.272;5.136;2024-02-04T08:25:04;102149.28;;;9.94;100.00
64200;BME280;50516;52.272;5.136;2024-02-04T08:27:31;102137.47;;;9.82;100.00
64200;BME280;50516;52.272;5.136;2024-02-04T08:29:56;102134.81;;;9.75;100.00
64200;BME280;50516;52.272;5.136;2024-02-04T08:32:21;102137.06;;;9.78;100.00
64200;BME280;50516;52.272;5.136;2024-02-04T08:34:46;102135.56;;;9.82;100.00
64200;BME280;50516;52.272;5.136;2024-02-04T08:37:12;102132.09;;;9.87;100.00
64200;BME280;50516;52.272;5.136;2024-02-04T08:39:37;102114.31;;;9.90;100.00
64200;BME280;50516;52.272;5.136;2024-02-04T08:42:02;102120.91;;;10.00;100.00
64200;BME280;50516;52.272;5.136;2024-02-04T08:44:28;102108.25;;;9.99;100.00
64200;BME280;50516;52.272;5.136;2024-02-04T08:46:53;102109.81;;;9.95;100.00
64200;BME280;50516;52.272;5.136;2024-02-04T08:49:20;102110.16;;;9.99;100.00
64200;BME280;50516;52.272;5.136;2024-02-04T08:51:45;102107.78;;;10.02;100.00
64200;BME280;50516;52.272;5.136;2024-02-04T08:54:11;102103.97;;;10.03;100.00
64200;BME280;50516;52.272;5.136;2024-02-04T08:56:36;102099.41;;;9.97;100.00
64200;BME280;50516;52.272;5.136;2024-02-04T08:59:02;102090.34;;;10.09;100.00
64200;BME280;50516;52.272;5.136;2024-02-04T09:01:27;102084.63;;;9.98;100.00
64200;BME280;50516;52.272;5.136;2024-02-04T09:03:52;102089.88;;;10.00;100.00
64200;BME280;50516;52.272;5.136;2024-02-04T09:06:18;102098.72;;;10.14;100.00
64200;BME280;50516;52.272;5.136;2024-02-04T09:08:43;102093.69;;;10.11;100.00
64200;BME280;50516;52.272;5.136;2024-02-04T09:11:08;102109.47;;;10.27;100.00
64200;BME280;50516;52.272;5.136;2024-02-04T09:13:34;102120.44;;;10.15;100.00
64200;BME280;50516;52.272;5.136;2024-02-04T09:15:59;102121.41;;;10.21;100.00
64200;BME280;50516;52.272;5.136;2024-02-04T09:18:24;102132.38;;;10.21;100.00
64200;BME280;50516;52.272;5.136;2024-02-04T09:20:50;102135.59;;;10.30;100.00
64200;BME280;50516;52.272;5.136;2024-02-04T09:23:15;102125.78;;;10.22;100.00
64200;BME280;50516;52.272;5.136;2024-02-04T09:25:41;102130.56;;;10.27;100.00
64200;BME280;50516;52.272;5.136;2024-02-04T09:28:06;102126.28;;;10.31;100.00
64200;BME280;50516;52.272;5.136;2024-02-04T09:30:31;102126.19;;;10.37;100.00
64200;BME280;50516;52.272;5.136;2024-02-04T09:32:56;102125.13;;;10.38;100.00
64200;BME280;50516;52.272;5.136;2024-02-04T09:35:22;102121.88;;;10.41;100.00
64200;BME280;50516;52.272;5.136;2024-02-04T09:37:47;102114.44;;;10.66;100.00
64200;BME280;50516;52.272;5.136;2024-02-04T09:40:13;102116.59;;;10.75;100.00
64200;BME280;50516;52.272;5.136;2024-02-04T09:42:38;102118.16;;;10.71;100.00
64200;BME280;50516;52.272;5.136;2024-02-04T09:45:04;102112.06;;;10.69;100.00
64200;BME280;50516;52.272;5.136;2024-02-04T09:47:32;102108.94;;;10.77;100.00
64200;BME280;50516;52.272;5.136;2024-02-04T09:49:59;102108.38;;;10.64;100.00
64200;BME280;50516;52.272;5.136;2024-02-04T09:52:29;102105.97;;;10.79;100.00
64200;BME280;50516;52.272;5.136;2024-02-04T09:55:02;102116.47;;;10.70;100.00
64200;BME280;50516;52.272;5.136;2024-02-04T09:57:29;102107.16;;;10.71;100.00
64200;BME280;50516;52.272;5.136;2024-02-04T09:59:55;102121.97;;;10.82;100.00
64200;BME280;50516;52.272;5.136;2024-02-04T10:02:20;102119.06;;;10.77;100.00
64200;BME280;50516;52.272;5.136;2024-02-04T10:04:46;102117.19;;;10.77;100.00
64200;BME280;50516;52.272;5.136;2024-02-04T10:07:11;102118.25;;;10.76;100.00
64200;BME280;50516;52.272;5.136;2024-02-04T10:09:39;102110.59;;;10.78;100.00
64200;BME280;50516;52.272;5.136;2024-02-04T10:12:05;102113.38;;;10.67;100.00
64200;BME280;50516;52.272;5.136;2024-02-04T10:14:31;102121.97;;;10.70;100.00
64200;BME280;50516;52.272;5.136;2024-02-04T10:16:56;102119.34;;;10.64;100.00
64200;BME280;50516;52.272;5.136;2024-02-04T10:19:24;102118.25;;;10.76;100.00
64200;BME280;50516;52.272;5.136;2024-02-04T10:22:03;102121.97;;;10.70;100.00
64200;BME280;50516;52.272;5.136;2024-02-04T10:24:29;102114.44;;;10.66;100.00
64200;BME280;50516;52.272;5.136;2024-02-04T10:26:56;102120.91;;;10.71;100.00
64200;BME280;50516;52.272;5.136;2024-02-04T10:29:23;102128.31;;;10.71;100.00
64200;BME280;50516;52.272;5.136;2024-02-04T10:31:48;102124.84;;;10.75;100.00
64200;BME280;50516;52.272;5.136;2024-02-04T10:34:14;102132.09;;;10.82;100.00
64200;BME280;50516;52.272;5.136;2024-02-04T10:36:39;102132.38;;;10.68;100.00
64200;BME280;50516;52.272;5.136;2024-02-04T10:39:05;102124.13;;;10.68;100.00
64200;BME280;50516;52.272;5.136;2024-02-04T10:41:34;102134.47;;;10.90;100.00
64200;BME280;50516;52.272;5.136;2024-02-04T10:44:02;102120.38;;;10.86;100.00
64200;BME280;50516;52.272;5.136;2024-02-04T10:46:30;102128.28;;;10.83;100.00
64200;BME280;50516;52.272;5.136;2024-02-04T10:48:59;102138.41;;;10.94;100.00
64200;BME280;50516;52.272;5.136;2024-02-04T10:51:26;102132.66;;;10.95;100.00
64200;BME280;50516;52.272;5.136;2024-02-04T10:53:54;102142.22;;;10.93;100.00
64200;BME280;50516;52.272;5.136;2024-02-04T10:58:52;102143.84;;;11.06;100.00
64200;BME280;50516;52.272;5.136;2024-02-04T11:01:18;102128.63;;;10.98;100.00
64200;BME280;50516;52.272;5.136;2024-02-04T11:03:45;102133.63;;;10.89;100.00
64200;BME280;50516;52.272;5.136;2024-02-04T11:06:12;102123.75;;;10.76;100.00
64200;BME280;50516;52.272;5.136;2024-02-04T11:08:38;102126.50;;;10.76;100.00
64200;BME280;50516;52.272;5.136;2024-02-04T11:11:04;102127.13;;;10.67;100.00
64200;BME280;50516;52.272;5.136;2024-02-04T11:13:30;102133.28;;;10.86;100.00
64200;BME280;50516;52.272;5.136;2024-02-04T11:15:58;102140.22;;;10.76;100.00
64200;BME280;50516;52.272;5.136;2024-02-04T11:24:11;102127.31;;;10.77;100.00
64200;BME280;50516;52.272;5.136;2024-02-04T11:26:42;102128.94;;;10.61;100.00
64200;BME280;50516;52.272;5.136;2024-02-04T11:29:09;102138.34;;;10.65;100.00
64200;BME280;50516;52.272;5.136;2024-02-04T11:31:38;102120.75;;;10.78;100.00
64200;BME280;50516;52.272;5.136;2024-02-04T11:34:05;102099.84;;;10.89;100.00
64200;BME280;50516;52.272;5.136;2024-02-04T11:36:40;102099.25;;;11.15;100.00
64200;BME280;50516;52.272;5.136;2024-02-04T11:39:17;102101.66;;;11.12;100.00
64200;BME280;50516;52.272;5.136;2024-02-04T11:41:47;102101.47;;;10.90;100.00
64200;BME280;50516;52.272;5.136;2024-02-04T11:44:12;102104.75;;;10.87;100.00
64200;BME280;50516;52.272;5.136;2024-02-04T11:46:38;102100.84;;;11.00;100.00
64200;BME280;50516;52.272;5.136;2024-02-04T11:49:03;102093.16;;;11.13;100.00
64200;BME280;50516;52.272;5.136;2024-02-04T11:51:29;102091.88;;;11.04;100.00
64200;BME280;50516;52.272;5.136;2024-02-04T11:53:55;102094.53;;;10.99;100.00
64200;BME280;50516;52.272;5.136;2024-02-04T11:56:21;102108.22;;;11.11;100.00
64200;BME280;50516;52.272;5.136;2024-02-04T11:58:47;102095.75;;;11.20;100.00
64200;BME280;50516;52.272;5.136;2024-02-04T12:01:12;102096.22;;;11.00;100.00
64200;BME280;50516;52.272;5.136;2024-02-04T12:03:37;102081.56;;;10.83;100.00
64200;BME280;50516;52.272;5.136;2024-02-04T12:06:04;102081.63;;;10.71;100.00
64200;BME280;50516;52.272;5.136;2024-02-04T12:08:32;102075.06;;;10.60;100.00
64200;BME280;50516;52.272;5.136;2024-02-04T12:10:57;102078.41;;;10.62;100.00
64200;BME280;50516;52.272;5.136;2024-02-04T12:13:24;102079.59;;;10.66;100.00
64200;BME280;50516;52.272;5.136;2024-02-04T12:15:49;102071.94;;;10.68;100.00
64200;BME280;50516;52.272;5.136;2024-02-04T12:18:15;102063.91;;;11.07;100.00
64200;BME280;50516;52.272;5.136;2024-02-04T12:20:45;102058.97;;;10.92;100.00
64200;BME280;50516;52.272;5.136;2024-02-04T12:23:12;102064.78;;;10.96;100.00
64200;BME280;50516;52.272;5.136;2024-02-04T12:25:37;102066.97;;;10.94;100.00
64200;BME280;50516;52.272;5.136;2024-02-04T12:28:03;102077.06;;;11.05;100.00
64200;BME280;50516;52.272;5.136;2024-02-04T12:30:29;102072.63;;;11.04;100.00
64200;BME280;50516;52.272;5.136;2024-02-04T12:32:59;102074.13;;;10.95;100.00
64200;BME280;50516;52.272;5.136;2024-02-04T12:35:28;102066.75;;;10.84;100.00
64200;BME280;50516;52.272;5.136;2024-02-04T12:37:54;102071.78;;;10.87;100.00
64200;BME280;50516;52.272;5.136;2024-02-04T12:40:24;102076.66;;;10.85;100.00
64200;BME280;50516;52.272;5.136;2024-02-04T12:42:54;102065.47;;;10.74;100.00
64200;BME280;50516;52.272;5.136;2024-02-04T12:45:20;102052.13;;;10.66;100.00
64200;BME280;50516;52.272;5.136;2024-02-04T12:47:49;102053.66;;;10.74;100.00
64200;BME280;50516;52.272;5.136;2024-02-04T12:50:15;102034.03;;;10.82;100.00
64200;BME280;50516;52.272;5.136;2024-02-04T12:52:41;102045.03;;;10.82;100.00